Time;durP1;ratioP1;P1;durP2;ratioP2;P2;SDS_P1;SDS_P2;PMS_P1;PMS_P2;Temp;Humidity;BMP_temperature;BMP_pressure;BME280_temperature;BME280_humidity;BME280_pressure;Samples;Min_cycle;Max_cycle;Signal;HPM_P1;HPM_P2
2024/02/02 00:02:23;;;;;;;27.33;3.92;;;;;;;;;;5068187;28;20090;-61
2024/02/02 00:04:49;;;;;;;18.95;3.33;;;;;;;;;;5066431;28;20036;-60
2024/02/02 00:07:14;;;;;;;23.55;3.78;;;;;;;;;;5068264;28;20040;-61
2024/02/02 00:09:40;;;;;;;19.42;3.67;;;;;;;;;;5070808;28;20028;-60
2024/02/02 00:12:10;;;;;;;30.27;3.75;;;;;;;;;;5066433;28;20032;-60
2024/02/02 00:14:36;;;;;;;23.30;2.95;;;;;;;;;;5066776;28;20037;-60
2024/02/02 00:17:03;;;;;;;18.80;3.85;;;;;;;;;;5068128;28;20111;-61
2024/02/02 00:19:29;;;;;;;24.10;3.70;;;;;;;;;;5074205;28;20100;-61
2024/02/02 00:21:55;;;;;;;11.13;2.92;;;;;;;;;;5072933;28;20086;-61
2024/02/02 00:24:20;;;;;;;15.57;3.70;;;;;;;;;;5072974;28;20027;-61
2024/02/02 00:26:46;;;;;;;20.83;3.53;;;;;;;;;;5067776;28;20040;-61
2024/02/02 00:29:12;;;;;;;21.05;3.83;;;;;;;;;;5068506;28;20032;-60
2024/02/02 00:31:38;;;;;;;21.45;3.85;;;;;;;;;;5074164;28;20029;-61
2024/02/02 00:34:04;;;;;;;16.27;3.40;;;;;;;;;;5073327;28;20024;-61
2024/02/02 00:36:30;;;;;;;19.25;3.20;;;;;;;;;;5066747;28;20013;-60
2024/02/02 00:38:56;;;;;;;20.50;4.00;;;;;;;;;;5071654;28;20499;-61
2024/02/02 00:41:22;;;;;;;27.17;4.32;;;;;;;;;;5071574;28;20468;-62
2024/02/02 00:43:48;;;;;;;23.27;3.25;;;;;;;;;;5073011;28;20043;-62
2024/02/02 00:46:14;;;;;;;27.38;3.70;;;;;;;;;;5071838;28;20032;-61
2024/02/02 00:48:40;;;;;;;17.67;3.33;;;;;;;;;;5074307;28;20111;-62
2024/02/02 00:51:06;;;;;;;16.35;3.05;;;;;;;;;;5061493;28;20032;-62
2024/02/02 00:53:32;;;;;;;25.15;3.58;;;;;;;;;;5071760;28;20071;-62
2024/02/02 00:55:58;;;;;;;25.75;4.38;;;;;;;;;;5073786;28;20027;-59
2024/02/02 00:58:24;;;;;;;23.15;3.10;;;;;;;;;;5072764;28;20489;-61
2024/02/02 01:00:50;;;;;;;16.13;3.20;;;;;;;;;;5071276;28;20547;-62
2024/02/02 01:03:16;;;;;;;16.38;3.20;;;;;;;;;;5068021;28;20078;-61
2024/02/02 01:05:42;;;;;;;17.65;4.38;;;;;;;;;;5065673;28;20040;-61
2024/02/02 01:08:08;;;;;;;22.10;3.83;;;;;;;;;;5072743;28;20478;-61
2024/02/02 01:10:34;;;;;;;21.65;3.30;;;;;;;;;;5073802;28;20028;-61
2024/02/02 01:13:00;;;;;;;18.77;4.00;;;;;;;;;;5072059;28;20020;-61
2024/02/02 01:15:26;;;;;;;18.40;3.53;;;;;;;;;;5071955;28;20114;-62
2024/02/02 01:17:52;;;;;;;29.02;6.30;;;;;;;;;;5072158;28;20029;-61
2024/02/02 01:20:18;;;;;;;25.40;4.53;;;;;;;;;;5073406;28;20020;-61
2024/02/02 01:22:44;;;;;;;15.00;3.95;;;;;;;;;;5071465;28;20024;-60
2024/02/02 01:25:14;;;;;;;32.58;4.50;;;;;;;;;;5066075;28;20032;-60
2024/02/02 01:27:40;;;;;;;15.57;3.33;;;;;;;;;;5064845;28;20059;-60
2024/02/02 01:30:07;;;;;;;25.40;3.85;;;;;;;;;;5064961;28;20219;-58
2024/02/02 01:32:33;;;;;;;21.10;4.78;;;;;;;;;;5072918;28;20534;-60
2024/02/02 01:34:59;;;;;;;29.73;3.95;;;;;;;;;;5064280;28;20162;-58
2024/02/02 01:37:25;;;;;;;20.08;3.70;;;;;;;;;;5071432;28;20024;-60
2024/02/02 01:39:51;;;;;;;25.63;4.25;;;;;;;;;;5053757;28;20433;-60
2024/02/02 01:42:17;;;;;;;15.77;3.45;;;;;;;;;;5058617;28;20075;-58
2024/02/02 01:44:43;;;;;;;24.02;4.38;;;;;;;;;;5056969;28;20047;-60
2024/02/02 01:47:09;;;;;;;29.13;4.90;;;;;;;;;;5058814;28;20043;-58
2024/02/02 01:49:35;;;;;;;21.35;3.80;;;;;;;;;;5061660;28;20057;-60
2024/02/02 01:52:02;;;;;;;17.63;3.05;;;;;;;;;;5065868;28;20486;-60
2024/02/02 01:54:29;;;;;;;19.83;3.67;;;;;;;;;;5071600;28;20024;-60
2024/02/02 01:56:55;;;;;;;19.95;3.67;;;;;;;;;;5071248;28;20039;-60
2024/02/02 01:59:21;;;;;;;24.20;4.25;;;;;;;;;;5058381;28;20047;-61
2024/02/02 02:01:47;;;;;;;13.43;3.28;;;;;;;;;;5072270;28;20517;-60
2024/02/02 02:04:13;;;;;;;19.33;4.50;;;;;;;;;;5064097;28;20047;-60
2024/02/02 02:06:42;;;;;;;20.80;4.40;;;;;;;;;;5066918;28;20099;-60
2024/02/02 02:09:11;;;;;;;16.20;4.20;;;;;;;;;;5055944;28;20025;-60
2024/02/02 02:11:37;;;;;;;28.10;4.20;;;;;;;;;;5058795;28;20037;-60
2024/02/02 02:14:03;;;;;;;20.45;3.33;;;;;;;;;;5062891;28;20379;-62
2024/02/02 02:16:29;;;;;;;21.75;3.80;;;;;;;;;;5060790;28;20437;-60
2024/02/02 02:18:55;;;;;;;20.50;3.88;;;;;;;;;;5054247;28;20017;-60
2024/02/02 02:21:24;;;;;;;25.05;4.00;;;;;;;;;;5070001;28;20020;-60
2024/02/02 02:23:51;;;;;;;16.65;4.07;;;;;;;;;;5056024;28;20063;-60
2024/02/02 02:26:20;;;;;;;17.42;4.30;;;;;;;;;;5068012;28;20115;-60
2024/02/02 02:28:47;;;;;;;21.17;3.88;;;;;;;;;;5071277;28;20036;-57
2024/02/02 02:31:13;;;;;;;23.25;4.10;;;;;;;;;;5063886;28;20109;-60
2024/02/02 02:33:39;;;;;;;28.77;3.90;;;;;;;;;;5071282;28;20028;-60
2024/02/02 02:36:05;;;;;;;10.73;3.63;;;;;;;;;;5062364;28;20445;-59
2024/02/02 02:38:31;;;;;;;13.63;3.58;;;;;;;;;;5071302;28;20100;-61
2024/02/02 02:40:57;;;;;;;20.77;4.43;;;;;;;;;;5061841;28;20406;-59
2024/02/02 02:43:23;;;;;;;20.33;3.53;;;;;;;;;;5067170;28;20459;-61
2024/02/02 02:45:49;;;;;;;16.80;4.60;;;;;;;;;;5069446;28;20150;-61
2024/02/02 02:48:15;;;;;;;21.42;4.05;;;;;;;;;;5065465;28;20032;-61
2024/02/02 02:50:41;;;;;;;20.60;3.35;;;;;;;;;;5063348;28;20106;-61
2024/02/02 02:53:07;;;;;;;22.20;4.53;;;;;;;;;;5069589;28;20033;-61
2024/02/02 02:55:33;;;;;;;24.33;5.00;;;;;;;;;;5066391;28;20036;-60
2024/02/02 02:57:59;;;;;;;18.95;4.40;;;;;;;;;;5066934;28;20036;-60
2024/02/02 03:00:28;;;;;;;22.58;4.20;;;;;;;;;;5066342;28;20103;-61
2024/02/02 03:02:55;;;;;;;27.98;5.22;;;;;;;;;;5069410;28;20036;-61
2024/02/02 03:05:21;;;;;;;20.25;4.20;;;;;;;;;;5068602;28;20486;-61
2024/02/02 03:07:46;;;;;;;16.20;4.15;;;;;;;;;;5059104;28;20036;-61
2024/02/02 03:10:13;;;;;;;23.83;5.32;;;;;;;;;;5067810;28;20037;-61
2024/02/02 03:12:39;;;;;;;32.83;6.25;;;;;;;;;;5057973;28;20024;-61
2024/02/02 03:15:05;;;;;;;21.67;4.50;;;;;;;;;;5048453;28;20475;-60
2024/02/02 03:17:31;;;;;;;18.30;4.95;;;;;;;;;;5070893;28;20021;-61
2024/02/02 03:19:57;;;;;;;23.17;5.47;;;;;;;;;;5070826;28;20033;-61
2024/02/02 03:22:23;;;;;;;25.98;5.60;;;;;;;;;;5071215;28;20024;-61
2024/02/02 03:24:49;;;;;;;19.63;5.18;;;;;;;;;;5071191;28;20039;-61
2024/02/02 03:27:15;;;;;;;28.65;6.35;;;;;;;;;;5071054;28;20029;-61
2024/02/02 03:29:41;;;;;;;30.67;7.40;;;;;;;;;;5071087;28;20033;-61
2024/02/02 03:32:07;;;;;;;27.25;5.97;;;;;;;;;;5069391;28;20109;-61
2024/02/02 03:34:33;;;;;;;32.03;6.78;;;;;;;;;;5062364;28;20025;-61
2024/02/02 03:36:58;;;;;;;25.02;6.43;;;;;;;;;;5069280;28;20020;-60
2024/02/02 03:39:24;;;;;;;17.15;4.85;;;;;;;;;;5066303;28;20367;-61
2024/02/02 03:41:51;;;;;;;29.20;5.28;;;;;;;;;;5065641;28;20051;-61
2024/02/02 03:44:17;;;;;;;21.70;4.85;;;;;;;;;;5069622;28;20039;-61
2024/02/02 03:46:43;;;;;;;20.17;5.03;;;;;;;;;;5063699;28;20041;-67
2024/02/02 03:49:08;;;;;;;25.88;5.70;;;;;;;;;;5069885;28;20040;-66
2024/02/02 03:51:34;;;;;;;16.95;4.88;;;;;;;;;;5071128;28;20082;-66
2024/02/02 03:54:00;;;;;;;22.35;5.72;;;;;;;;;;5063733;28;20025;-67
2024/02/02 03:56:26;;;;;;;32.83;5.93;;;;;;;;;;5068820;28;20044;-66
2024/02/02 03:58:52;;;;;;;20.60;5.18;;;;;;;;;;5073238;28;20025;-66
2024/02/02 04:01:18;;;;;;;28.67;5.72;;;;;;;;;;5050082;28;20111;-66
2024/02/02 04:03:44;;;;;;;27.20;5.43;;;;;;;;;;5073214;28;20020;-66
2024/02/02 04:06:10;;;;;;;31.38;5.45;;;;;;;;;;5071914;28;20024;-66
2024/02/02 04:08:36;;;;;;;19.20;5.10;;;;;;;;;;5058043;28;20031;-67
2024/02/02 04:11:02;;;;;;;23.65;6.40;;;;;;;;;;5073867;28;20025;-65
2024/02/02 04:13:28;;;;;;;18.55;4.85;;;;;;;;;;5073390;28;20412;-66
2024/02/02 04:15:54;;;;;;;27.00;5.55;;;;;;;;;;5055437;28;20051;-66
2024/02/02 04:18:20;;;;;;;25.65;4.93;;;;;;;;;;5073807;28;20497;-65
2024/02/02 04:20:46;;;;;;;24.98;5.35;;;;;;;;;;5073961;28;20525;-66
2024/02/02 04:23:12;;;;;;;28.30;6.03;;;;;;;;;;5073448;28;20074;-62
2024/02/02 04:25:38;;;;;;;22.30;6.18;;;;;;;;;;5064195;28;20029;-66
2024/02/02 04:28:08;;;;;;;17.02;4.60;;;;;;;;;;5069887;28;20097;-66
2024/02/02 04:30:35;;;;;;;26.17;5.20;;;;;;;;;;5073490;28;20448;-66
2024/02/02 04:33:01;;;;;;;22.50;5.03;;;;;;;;;;5073086;28;20028;-66
2024/02/02 04:35:27;;;;;;;14.63;4.15;;;;;;;;;;5073467;28;20493;-66
2024/02/02 04:37:53;;;;;;;20.15;5.00;;;;;;;;;;5057765;28;20062;-66
2024/02/02 04:40:19;;;;;;;25.58;5.63;;;;;;;;;;5070355;28;20024;-66
2024/02/02 04:42:47;;;;;;;22.20;5.32;;;;;;;;;;5071228;28;20498;-66
2024/02/02 04:45:13;;;;;;;21.10;4.50;;;;;;;;;;5060720;28;20489;-66
2024/02/02 04:47:39;;;;;;;20.65;4.20;;;;;;;;;;5068098;28;20033;-66
2024/02/02 04:50:05;;;;;;;23.48;5.05;;;;;;;;;;5073104;28;20048;-66
2024/02/02 04:52:31;;;;;;;17.67;4.78;;;;;;;;;;5069676;28;20520;-67
2024/02/02 04:54:57;;;;;;;26.88;5.25;;;;;;;;;;5071806;28;20033;-66
2024/02/02 04:57:23;;;;;;;23.58;4.40;;;;;;;;;;5065331;28;20525;-65
2024/02/02 04:59:49;;;;;;;12.80;4.53;;;;;;;;;;5072434;28;20024;-65
2024/02/02 05:02:15;;;;;;;32.17;4.97;;;;;;;;;;5067379;28;20073;-66
2024/02/02 05:04:41;;;;;;;13.20;3.20;;;;;;;;;;5061275;28;20021;-67
2024/02/02 05:07:07;;;;;;;21.60;4.78;;;;;;;;;;5072520;28;20240;-67
2024/02/02 05:09:33;;;;;;;26.67;4.97;;;;;;;;;;5071965;28;20098;-67
2024/02/02 05:11:59;;;;;;;15.68;4.20;;;;;;;;;;5066059;28;20044;-65
2024/02/02 05:14:24;;;;;;;24.23;4.47;;;;;;;;;;5069114;28;20047;-67
2024/02/02 05:16:50;;;;;;;16.48;3.90;;;;;;;;;;5071214;28;20016;-67
2024/02/02 05:19:16;;;;;;;17.17;4.28;;;;;;;;;;5072826;28;20021;-67
2024/02/02 05:21:43;;;;;;;36.08;5.22;;;;;;;;;;5068315;28;20035;-68
2024/02/02 05:24:09;;;;;;;23.45;4.53;;;;;;;;;;5070353;28;20845;-65
2024/02/02 05:26:35;;;;;;;18.02;4.60;;;;;;;;;;5072145;28;20028;-67
2024/02/02 05:29:01;;;;;;;21.38;4.05;;;;;;;;;;5054440;28;20081;-67
2024/02/02 05:31:27;;;;;;;19.23;4.43;;;;;;;;;;5069454;28;20028;-67
2024/02/02 05:33:53;;;;;;;21.05;4.18;;;;;;;;;;5072535;28;20032;-67
2024/02/02 05:36:19;;;;;;;21.02;4.53;;;;;;;;;;5049382;28;20032;-65
2024/02/02 05:38:45;;;;;;;27.20;4.75;;;;;;;;;;5066492;28;20032;-67
2024/02/02 05:41:11;;;;;;;12.75;3.40;;;;;;;;;;5052501;28;20024;-67
2024/02/02 05:43:37;;;;;;;16.58;3.72;;;;;;;;;;5071554;28;20110;-68
2024/02/02 05:46:05;;;;;;;17.75;4.55;;;;;;;;;;5065760;28;20391;-67
2024/02/02 05:48:31;;;;;;;16.38;4.35;;;;;;;;;;5068109;28;20103;-68
2024/02/02 05:50:57;;;;;;;15.07;4.03;;;;;;;;;;5066276;28;20028;-67
2024/02/02 05:53:23;;;;;;;22.73;4.30;;;;;;;;;;5066887;28;20043;-66
2024/02/02 05:55:49;;;;;;;20.08;4.00;;;;;;;;;;5067574;28;20108;-67
2024/02/02 05:58:15;;;;;;;16.85;4.25;;;;;;;;;;5069634;28;20020;-67
2024/02/02 06:00:41;;;;;;;17.38;4.15;;;;;;;;;;5067312;28;20035;-67
2024/02/02 06:03:07;;;;;;;21.27;3.85;;;;;;;;;;5065640;28;20032;-67
2024/02/02 06:05:33;;;;;;;17.20;3.78;;;;;;;;;;5070322;28;20025;-67
2024/02/02 06:08:01;;;;;;;24.42;4.47;;;;;;;;;;5066520;28;20029;-59
2024/02/02 06:10:27;;;;;;;18.17;3.92;;;;;;;;;;5064632;28;20033;-58
2024/02/02 06:12:53;;;;;;;24.02;4.30;;;;;;;;;;5065711;28;20032;-59
2024/02/02 06:15:19;;;;;;;23.35;4.68;;;;;;;;;;5060317;28;20080;-59
2024/02/02 06:17:47;;;;;;;17.05;4.07;;;;;;;;;;5062176;28;20064;-62
2024/02/02 06:20:13;;;;;;;17.33;3.92;;;;;;;;;;5068485;28;20028;-58
2024/02/02 06:22:39;;;;;;;28.55;5.55;;;;;;;;;;5069963;28;20444;-59
2024/02/02 06:25:05;;;;;;;17.10;4.43;;;;;;;;;;5060221;28;20055;-58
2024/02/02 06:27:31;;;;;;;21.58;4.80;;;;;;;;;;5049486;28;20037;-58
2024/02/02 06:29:59;;;;;;;30.45;5.00;;;;;;;;;;5070569;28;20040;-60
2024/02/02 06:32:26;;;;;;;22.38;3.92;;;;;;;;;;5068044;28;20032;-59
2024/02/02 06:34:55;;;;;;;17.20;4.43;;;;;;;;;;5070428;28;20024;-58
2024/02/02 06:37:23;;;;;;;25.85;5.65;;;;;;;;;;5045580;28;20033;-59
2024/02/02 06:39:51;;;;;;;26.63;4.93;;;;;;;;;;5068893;28;20033;-59
2024/02/02 06:42:17;;;;;;;13.35;3.95;;;;;;;;;;5067010;28;20028;-58
2024/02/02 06:44:43;;;;;;;16.05;4.13;;;;;;;;;;5068402;28;20044;-59
2024/02/02 06:47:09;;;;;;;28.13;3.97;;;;;;;;;;5071776;28;20039;-58
2024/02/02 06:49:35;;;;;;;23.08;4.57;;;;;;;;;;5063747;28;20028;-58
2024/02/02 06:52:01;;;;;;;15.75;4.13;;;;;;;;;;5070038;28;20024;-60
2024/02/02 06:54:27;;;;;;;21.77;4.15;;;;;;;;;;5069375;28;20569;-58
2024/02/02 06:56:54;;;;;;;23.77;4.65;;;;;;;;;;5070873;28;20099;-58
2024/02/02 06:59:20;;;;;;;20.77;4.18;;;;;;;;;;5049360;28;20099;-58
2024/02/02 07:01:46;;;;;;;17.80;4.13;;;;;;;;;;5062294;28;20569;-56
2024/02/02 07:04:14;;;;;;;21.00;3.80;;;;;;;;;;5069007;28;20470;-58
2024/02/02 07:06:40;;;;;;;27.08;4.82;;;;;;;;;;5070120;28;20021;-59
2024/02/02 07:09:21;;;;;;;18.40;3.58;;;;;;;;;;5064263;28;20064;-58
2024/02/02 07:11:56;;;;;;;16.92;4.00;;;;;;;;;;5049931;28;20032;-57
2024/02/02 07:14:36;;;;;;;14.07;3.80;;;;;;;;;;5068457;28;20051;-59
2024/02/02 07:17:03;;;;;;;16.30;3.70;;;;;;;;;;5067246;28;20029;-60
2024/02/02 07:19:38;;;;;;;19.63;3.53;;;;;;;;;;5071082;28;20056;-60
2024/02/02 07:22:12;;;;;;;14.63;3.50;;;;;;;;;;5071064;28;20486;-60
2024/02/02 07:24:42;;;;;;;15.25;4.10;;;;;;;;;;5070360;28;20119;-60
2024/02/02 07:27:19;;;;;;;17.60;3.90;;;;;;;;;;5073873;28;20100;-59
2024/02/02 07:29:45;;;;;;;19.40;4.80;;;;;;;;;;5077224;28;20028;-59
2024/02/02 07:32:14;;;;;;;21.90;4.57;;;;;;;;;;5071883;28;20032;-59
2024/02/02 07:34:45;;;;;;;17.80;3.45;;;;;;;;;;5074202;28;20047;-60
2024/02/02 07:37:29;;;;;;;20.30;4.38;;;;;;;;;;5077047;28;20106;-59
2024/02/02 07:39:55;;;;;;;19.40;4.35;;;;;;;;;;5075454;28;20033;-60
2024/02/02 07:42:21;;;;;;;17.88;6.63;;;;;;;;;;5077383;28;20035;-60
2024/02/02 07:44:47;;;;;;;17.13;4.70;;;;;;;;;;5067746;28;20028;-60
2024/02/02 07:47:13;;;;;;;19.20;4.70;;;;;;;;;;5069597;28;20076;-60
2024/02/02 07:49:39;;;;;;;26.38;4.75;;;;;;;;;;5069324;28;20032;-60
2024/02/02 07:52:05;;;;;;;25.50;5.07;;;;;;;;;;5075638;28;20032;-59
2024/02/02 07:54:31;;;;;;;20.50;4.88;;;;;;;;;;5052473;28;20508;-59
2024/02/02 07:56:57;;;;;;;22.88;5.32;;;;;;;;;;5068621;28;20025;-60
2024/02/02 07:59:23;;;;;;;18.63;4.88;;;;;;;;;;5070014;28;20025;-59
2024/02/02 08:01:49;;;;;;;18.92;4.63;;;;;;;;;;5064359;28;20056;-60
2024/02/02 08:04:15;;;;;;;16.33;4.85;;;;;;;;;;5061933;28;20782;-60
2024/02/02 08:06:41;;;;;;;18.30;5.93;;;;;;;;;;5069719;28;20031;-60
2024/02/02 08:09:09;;;;;;;27.90;4.55;;;;;;;;;;5067037;28;20056;-60
2024/02/02 08:11:35;;;;;;;20.25;4.93;;;;;;;;;;5072128;28;20051;-59
2024/02/02 08:14:01;;;;;;;32.45;4.90;;;;;;;;;;5075140;28;20084;-59
2024/02/02 08:16:27;;;;;;;24.65;6.07;;;;;;;;;;5068910;28;20501;-60
2024/02/02 08:18:53;;;;;;;16.05;4.90;;;;;;;;;;5071084;28;20028;-60
2024/02/02 08:21:19;;;;;;;18.88;5.00;;;;;;;;;;5062258;28;20493;-59
2024/02/02 08:23:46;;;;;;;22.08;5.50;;;;;;;;;;5069351;28;20462;-60
2024/02/02 08:26:13;;;;;;;20.38;5.38;;;;;;;;;;5077443;28;20414;-59
2024/02/02 08:28:39;;;;;;;16.17;5.13;;;;;;;;;;5074486;28;20039;-60
2024/02/02 08:31:05;;;;;;;32.50;6.07;;;;;;;;;;5071096;28;20063;-59
2024/02/02 08:33:31;;;;;;;19.60;5.47;;;;;;;;;;5073575;28;20017;-60
2024/02/02 08:35:57;;;;;;;20.10;6.15;;;;;;;;;;5074842;28;20384;-59
2024/02/02 08:38:23;;;;;;;21.55;5.95;;;;;;;;;;5073800;28;20021;-60
2024/02/02 08:40:49;;;;;;;25.13;6.22;;;;;;;;;;5070188;28;20123;-60
2024/02/02 08:43:16;;;;;;;20.83;5.65;;;;;;;;;;5067162;28;20463;-60
2024/02/02 08:45:42;;;;;;;24.13;5.53;;;;;;;;;;5067740;28;20121;-60
2024/02/02 08:48:25;;;;;;;23.80;5.85;;;;;;;;;;5073796;28;20038;-60
2024/02/02 08:50:51;;;;;;;19.30;5.40;;;;;;;;;;5061486;28;20029;-60
2024/02/02 08:53:17;;;;;;;22.50;5.53;;;;;;;;;;5073294;28;20162;-60
2024/02/02 08:55:49;;;;;;;18.38;6.18;;;;;;;;;;5070502;28;20048;-60
2024/02/02 08:58:15;;;;;;;17.52;5.80;;;;;;;;;;5070223;28;20025;-60
2024/02/02 09:00:42;;;;;;;18.45;5.88;;;;;;;;;;5063718;28;20028;-60
2024/02/02 09:03:23;;;;;;;19.85;5.90;;;;;;;;;;5065377;28;20478;-60
2024/02/02 09:05:53;;;;;;;20.58;6.65;;;;;;;;;;5072792;28;20016;-60
2024/02/02 09:08:26;;;;;;;15.27;5.85;;;;;;;;;;5071514;28;20047;-60
2024/02/02 09:10:57;;;;;;;20.65;6.00;;;;;;;;;;5065649;28;20036;-59
2024/02/02 09:13:27;;;;;;;24.88;6.25;;;;;;;;;;5071162;28;20510;-61
2024/02/02 09:15:54;;;;;;;23.25;5.70;;;;;;;;;;5072489;28;20041;-60
2024/02/02 09:18:26;;;;;;;20.45;6.20;;;;;;;;;;5071613;28;20043;-60
2024/02/02 09:20:52;;;;;;;18.25;5.43;;;;;;;;;;5070890;28;20020;-60
2024/02/02 09:23:18;;;;;;;17.63;5.60;;;;;;;;;;5071826;28;20111;-60
2024/02/02 09:25:45;;;;;;;14.68;6.13;;;;;;;;;;5072200;28;20062;-61
2024/02/02 09:28:29;;;;;;;19.23;5.32;;;;;;;;;;5072568;28;20033;-61
2024/02/02 09:30:56;;;;;;;22.73;6.03;;;;;;;;;;5072162;28;20571;-61
2024/02/02 09:33:38;;;;;;;26.17;5.22;;;;;;;;;;5072086;28;20036;-62
2024/02/02 09:36:05;;;;;;;18.40;4.90;;;;;;;;;;5064968;28;20063;-58
2024/02/02 09:38:31;;;;;;;17.23;5.45;;;;;;;;;;5066753;28;20390;-58
2024/02/02 09:41:06;;;;;;;20.73;6.30;;;;;;;;;;5064293;28;20123;-58
2024/02/02 09:43:38;;;;;;;16.00;4.80;;;;;;;;;;5072072;28;20032;-62
2024/02/02 09:46:07;;;;;;;13.35;5.35;;;;;;;;;;5072235;28;20032;-58
2024/02/02 09:48:55;;;;;;;23.23;5.70;;;;;;;;;;5072167;28;20025;-58
2024/02/02 09:51:24;;;;;;;15.63;4.78;;;;;;;;;;5068261;28;20115;-58
2024/02/02 09:53:58;;;;;;;15.20;5.35;;;;;;;;;;5071763;28;20036;-58
2024/02/02 09:56:36;;;;;;;14.98;4.38;;;;;;;;;;5071587;28;20394;-58
2024/02/02 09:59:08;;;;;;;16.35;4.32;;;;;;;;;;5072126;28;20103;-59
2024/02/02 10:01:52;;;;;;;17.60;6.05;;;;;;;;;;5070705;28;20035;-58
2024/02/02 10:04:30;;;;;;;14.45;3.88;;;;;;;;;;5070982;28;20584;-59
2024/02/02 10:06:59;;;;;;;13.93;3.50;;;;;;;;;;5062459;28;20032;-58
2024/02/02 10:09:57;;;;;;;13.82;4.20;;;;;;;;;;5061086;28;20036;-59
2024/02/02 10:12:40;;;;;;;13.35;4.30;;;;;;;;;;5012000;28;20063;-58
2024/02/02 10:15:09;;;;;;;14.83;4.00;;;;;;;;;;5067037;28;20089;-58
2024/02/02 10:17:53;;;;;;;21.05;4.35;;;;;;;;;;5071806;28;20074;-60
2024/02/02 10:20:31;;;;;;;12.30;3.60;;;;;;;;;;5061107;28;20025;-59
2024/02/02 10:23:11;;;;;;;12.75;2.95;;;;;;;;;;5071501;28;20482;-58
2024/02/02 10:26:00;;;;;;;13.18;3.13;;;;;;;;;;5071168;28;20079;-58
2024/02/02 10:28:45;;;;;;;12.63;3.15;;;;;;;;;;5069776;28;20055;-59
2024/02/02 10:31:18;;;;;;;9.38;3.00;;;;;;;;;;5069628;28;20028;-59
2024/02/02 10:33:47;;;;;;;11.57;2.53;;;;;;;;;;5067608;28;20025;-59
2024/02/02 10:36:13;;;;;;;12.57;3.63;;;;;;;;;;5068837;28;20023;-59
2024/02/02 10:39:02;;;;;;;11.45;2.70;;;;;;;;;;5061140;28;20071;-58
2024/02/02 10:41:41;;;;;;;11.02;3.63;;;;;;;;;;5067655;28;20394;-58
2024/02/02 10:44:17;;;;;;;10.85;2.35;;;;;;;;;;5062666;28;20086;-58
2024/02/02 10:46:54;;;;;;;10.48;3.20;;;;;;;;;;5071073;28;20032;-61
2024/02/02 10:49:30;;;;;;;9.65;2.50;;;;;;;;;;5071455;28;20052;-61
2024/02/02 10:52:14;;;;;;;12.02;2.40;;;;;;;;;;5071177;28;20069;-61
2024/02/02 10:54:51;;;;;;;8.25;2.20;;;;;;;;;;5069988;28;20111;-61
2024/02/02 10:57:37;;;;;;;10.50;2.88;;;;;;;;;;5070516;28;20025;-61
2024/02/02 11:00:16;;;;;;;8.18;2.47;;;;;;;;;;5065861;28;20020;-61
2024/02/02 11:03:01;;;;;;;12.18;2.72;;;;;;;;;;5067873;28;20037;-60
2024/02/02 11:05:36;;;;;;;9.43;2.80;;;;;;;;;;5059632;28;20409;-61
2024/02/02 11:08:06;;;;;;;9.43;3.10;;;;;;;;;;5068828;28;20032;-61
2024/02/02 11:10:33;;;;;;;11.48;2.60;;;;;;;;;;5062072;28;20032;-60
2024/02/02 11:13:08;;;;;;;16.45;3.15;;;;;;;;;;5065746;28;20027;-60
2024/02/02 11:15:34;;;;;;;10.80;3.33;;;;;;;;;;5056334;28;20094;-61
2024/02/02 11:18:15;;;;;;;10.88;3.78;;;;;;;;;;5064533;28;20462;-61
2024/02/02 11:20:52;;;;;;;14.02;3.20;;;;;;;;;;5067957;28;20017;-61
2024/02/02 11:23:28;;;;;;;13.85;3.40;;;;;;;;;;5058704;28;20398;-61
2024/02/02 11:25:59;;;;;;;10.93;3.85;;;;;;;;;;5070434;28;20543;-61
2024/02/02 11:28:34;;;;;;;12.73;4.45;;;;;;;;;;5060992;28;20041;-61
2024/02/02 11:31:12;;;;;;;12.27;3.65;;;;;;;;;;5067686;28;20031;-62
2024/02/02 11:34:00;;;;;;;10.20;3.58;;;;;;;;;;5068847;28;20106;-61
2024/02/02 11:36:49;;;;;;;14.77;3.97;;;;;;;;;;5060101;28;20486;-60
2024/02/02 11:39:22;;;;;;;12.88;4.03;;;;;;;;;;5062518;28;20498;-61
2024/02/02 11:41:48;;;;;;;13.85;3.85;;;;;;;;;;5070695;28;20047;-61
2024/02/02 11:44:14;;;;;;;12.48;4.07;;;;;;;;;;5069362;28;20054;-61
2024/02/02 11:46:40;;;;;;;14.05;3.88;;;;;;;;;;5069910;28;20565;-58
2024/02/02 11:49:08;;;;;;;15.10;4.07;;;;;;;;;;5070517;28;20504;-61
2024/02/02 11:51:36;;;;;;;16.38;3.85;;;;;;;;;;5070907;28;20092;-61
2024/02/02 11:54:03;;;;;;;16.38;3.88;;;;;;;;;;5068152;28;20032;-61
2024/02/02 11:56:29;;;;;;;14.52;3.65;;;;;;;;;;5066839;28;20028;-66
2024/02/02 11:59:09;;;;;;;12.82;4.07;;;;;;;;;;5061468;28;20055;-62
2024/02/02 12:01:46;;;;;;;10.88;3.72;;;;;;;;;;5060894;28;20025;-66
2024/02/02 12:04:17;;;;;;;15.00;3.70;;;;;;;;;;5057855;28;20395;-64
2024/02/02 12:06:55;;;;;;;7.05;2.92;;;;;;;;;;5059424;28;20564;-66
2024/02/02 12:09:25;;;;;;;13.10;3.30;;;;;;;;;;5060377;28;20432;-65
2024/02/02 12:11:55;;;;;;;16.33;3.58;;;;;;;;;;5059248;28;20036;-66
2024/02/02 12:14:31;;;;;;;11.32;3.92;;;;;;;;;;5071784;28;20049;-65
2024/02/02 12:17:00;;;;;;;18.08;3.85;;;;;;;;;;5052849;28;20118;-63
2024/02/02 12:19:26;;;;;;;12.50;3.13;;;;;;;;;;5069280;28;20049;-65
2024/02/02 12:21:53;;;;;;;10.98;3.40;;;;;;;;;;5040587;28;20478;-64
2024/02/02 12:24:19;;;;;;;15.20;3.30;;;;;;;;;;5065242;28;20024;-65
2024/02/02 12:26:46;;;;;;;14.32;3.50;;;;;;;;;;5064784;28;20028;-66
2024/02/02 12:29:14;;;;;;;18.48;3.80;;;;;;;;;;5062865;28;20021;-66
2024/02/02 12:31:40;;;;;;;10.00;3.33;;;;;;;;;;5073828;28;20024;-65
2024/02/02 12:34:06;;;;;;;13.95;3.15;;;;;;;;;;5054085;28;20501;-66
2024/02/02 12:36:33;;;;;;;15.38;3.67;;;;;;;;;;5064183;28;20029;-66
2024/02/02 12:38:59;;;;;;;10.85;3.30;;;;;;;;;;5070319;28;20028;-65
2024/02/02 12:41:25;;;;;;;8.95;3.15;;;;;;;;;;5067980;28;20102;-65
2024/02/02 12:43:51;;;;;;;14.93;3.88;;;;;;;;;;5064292;28;20470;-66
2024/02/02 12:46:17;;;;;;;13.68;3.40;;;;;;;;;;5072744;28;20024;-64
2024/02/02 12:48:43;;;;;;;17.83;4.30;;;;;;;;;;5058717;28;20394;-66
2024/02/02 12:51:09;;;;;;;16.02;3.55;;;;;;;;;;5046097;28;20024;-64
2024/02/02 12:53:35;;;;;;;16.20;4.20;;;;;;;;;;5063659;28;20031;-66
2024/02/02 12:56:01;;;;;;;12.05;3.45;;;;;;;;;;5072308;28;20107;-65
2024/02/02 12:58:27;;;;;;;10.75;3.65;;;;;;;;;;5068514;28;20024;-65
2024/02/02 13:00:53;;;;;;;14.80;3.50;;;;;;;;;;5066513;28;20028;-66
2024/02/02 13:03:22;;;;;;;8.98;3.25;;;;;;;;;;5072860;28;20100;-63
2024/02/02 13:05:50;;;;;;;10.13;3.40;;;;;;;;;;5060420;28;20041;-60
2024/02/02 13:08:26;;;;;;;19.92;4.38;;;;;;;;;;5064339;28;20027;-59
2024/02/02 13:10:52;;;;;;;20.15;3.65;;;;;;;;;;5058345;28;20096;-59
2024/02/02 13:13:19;;;;;;;18.58;4.32;;;;;;;;;;5071719;28;20032;-60
2024/02/02 13:15:45;;;;;;;13.18;3.88;;;;;;;;;;5069502;28;20159;-60
2024/02/02 13:18:12;;;;;;;10.75;4.35;;;;;;;;;;5047453;28;20114;-60
2024/02/02 13:20:38;;;;;;;16.33;4.00;;;;;;;;;;5062731;28;20067;-59
2024/02/02 13:23:13;;;;;;;15.30;3.30;;;;;;;;;;5044151;28;20035;-60
2024/02/02 13:25:42;;;;;;;9.57;3.83;;;;;;;;;;5070861;28;20048;-60
2024/02/02 13:28:18;;;;;;;18.33;4.40;;;;;;;;;;5062292;28;20037;-59
2024/02/02 13:31:05;;;;;;;15.02;4.07;;;;;;;;;;5055413;28;20027;-60
2024/02/02 13:33:32;;;;;;;19.55;4.80;;;;;;;;;;5057638;28;20735;-60
2024/02/02 13:35:59;;;;;;;17.90;4.38;;;;;;;;;;5058922;28;20031;-60
2024/02/02 13:38:27;;;;;;;10.45;4.30;;;;;;;;;;5059305;28;20548;-60
2024/02/02 13:40:53;;;;;;;15.95;4.63;;;;;;;;;;5056880;28;20090;-60
2024/02/02 13:43:19;;;;;;;15.20;4.32;;;;;;;;;;5055858;28;20478;-60
2024/02/02 13:45:47;;;;;;;18.00;4.53;;;;;;;;;;5056613;28;20108;-60
2024/02/02 13:48:14;;;;;;;13.25;3.65;;;;;;;;;;5055679;28;20037;-61
2024/02/02 13:50:59;;;;;;;11.85;4.32;;;;;;;;;;5057487;28;20040;-60
2024/02/02 13:53:26;;;;;;;16.25;4.22;;;;;;;;;;5058218;28;20047;-60
2024/02/02 13:55:52;;;;;;;14.20;3.35;;;;;;;;;;5059446;28;20036;-60
2024/02/02 13:58:18;;;;;;;16.00;4.15;;;;;;;;;;5060998;28;20032;-59
2024/02/02 14:00:44;;;;;;;9.25;3.88;;;;;;;;;;5062251;28;20140;-60
2024/02/02 14:03:11;;;;;;;19.08;3.97;;;;;;;;;;5059792;28;20047;-59
2024/02/02 14:05:39;;;;;;;19.13;3.97;;;;;;;;;;5070730;28;20040;-60
2024/02/02 14:08:06;;;;;;;16.70;4.88;;;;;;;;;;5070180;28;20078;-59
2024/02/02 14:10:44;;;;;;;18.02;4.00;;;;;;;;;;5066869;28;20036;-60
2024/02/02 14:13:16;;;;;;;16.48;3.65;;;;;;;;;;5063895;28;20827;-60
2024/02/02 14:15:42;;;;;;;14.55;4.53;;;;;;;;;;5067197;28;20101;-57
2024/02/02 14:18:11;;;;;;;13.00;4.40;;;;;;;;;;5065655;28;20078;-58
2024/02/02 14:20:37;;;;;;;20.50;4.95;;;;;;;;;;5067814;28;20020;-57
2024/02/02 14:23:09;;;;;;;12.73;4.43;;;;;;;;;;5066449;28;20100;-57
2024/02/02 14:25:35;;;;;;;16.60;4.13;;;;;;;;;;5065235;28;20111;-57
2024/02/02 14:28:12;;;;;;;21.85;4.70;;;;;;;;;;5069984;28;20035;-57
2024/02/02 14:30:38;;;;;;;22.52;5.40;;;;;;;;;;5044364;28;20054;-57
2024/02/02 14:33:04;;;;;;;14.30;4.00;;;;;;;;;;5064573;28;20028;-57
2024/02/02 14:35:30;;;;;;;16.88;4.50;;;;;;;;;;5068613;28;20066;-58
2024/02/02 14:37:56;;;;;;;17.13;3.97;;;;;;;;;;5070136;28;20024;-57
2024/02/02 14:40:22;;;;;;;16.73;4.65;;;;;;;;;;5069812;28;20028;-59